Terminal Aerodrome Forecast
Issued by NWS Anchorage, AK

Home | Current Version | Previous Version | Text Only | Print | Product List | Glossary On
Versions: 1 2 3 4 5 6 7 8 9 10 11 12 13 14 15 16 17 18 19 20 21 22 23 24 25 26 27 28 29 30 31 32 33 34 35 36 37 38 39 40 41 42 43 44 45 46 47 48
000
FTAK31 PANC 190914 AAC
TAFANC
TAF AMD
PANC 190914Z 1909/2012 13008G15KT P6SM -RA FEW045 BKN060 BKN150
      WS020/12035KT
     FM191200 15010KT P6SM -RA BKN035 OVC045
     FM191800 14025G38KT P6SM FEW080
     FM200700 11012G22KT P6SM BKN080=

USA.gov is the U.S. government's official web portal to all federal, state and local government web resources and services.